createdAt,value
2017-07-26T16:54:40.370Z,22.78
2017-07-26T16:57:15.261Z,22.80
2017-07-26T16:59:47.989Z,22.79
2017-07-26T17:02:36.345Z,22.81
2017-07-26T17:05:08.145Z,22.80
2017-07-26T17:07:39.739Z,22.79
2017-07-26T17:10:12.649Z,22.77
2017-07-26T17:12:45.186Z,22.87
2017-07-26T17:15:16.655Z,22.88
2017-07-26T17:17:53.037Z,22.74
2017-07-26T17:20:24.544Z,22.85
2017-07-26T17:22:56.262Z,22.75
2017-07-26T17:25:28.108Z,22.67
2017-07-26T17:27:59.575Z,22.77
2017-07-26T17:30:31.277Z,22.73
2017-07-26T17:33:02.800Z,22.73
2017-07-26T17:35:34.180Z,22.71
2017-07-26T17:38:06.565Z,22.65
2017-07-26T17:40:38.491Z,22.68
2017-07-26T17:43:10.553Z,22.68
2017-07-26T17:45:41.891Z,22.57
2017-07-26T17:48:16.062Z,22.53
2017-07-26T17:50:48.111Z,22.62
2017-07-26T17:53:23.278Z,22.65
2017-07-26T17:55:55.168Z,22.65
2017-07-26T17:58:27.687Z,22.43
2017-07-26T18:00:59.892Z,22.56
2017-07-26T18:03:31.145Z,22.61
2017-07-26T18:06:02.843Z,22.60
2017-07-26T18:08:34.097Z,22.58
2017-07-26T18:11:05.847Z,22.59
2017-07-26T18:13:39.215Z,22.58
2017-07-26T18:16:11.645Z,22.57
2017-07-26T18:18:43.660Z,22.53
2017-07-26T18:21:16.254Z,22.45
2017-07-26T18:23:48.733Z,22.56
2017-07-26T18:26:22.689Z,22.54
2017-07-26T18:28:54.394Z,22.48
2017-07-26T18:31:26.951Z,22.29
2017-07-26T18:33:59.852Z,22.42
2017-07-26T18:36:31.387Z,22.50
2017-07-26T18:39:02.829Z,22.53
2017-07-26T18:41:34.469Z,22.54
2017-07-26T18:44:05.783Z,22.50
2017-07-26T18:46:37.310Z,22.51
2017-07-26T18:49:09.485Z,22.50
2017-07-26T18:51:40.991Z,22.43
2017-07-26T18:54:12.921Z,22.45
2017-07-26T18:56:44.314Z,22.34
2017-07-26T18:59:16.377Z,22.48
2017-07-26T19:01:48.111Z,22.27
2017-07-26T19:04:22.174Z,22.45
2017-07-26T19:06:53.896Z,22.45
2017-07-26T19:09:26.791Z,22.07
2017-07-26T19:11:57.937Z,22.48
2017-07-26T19:14:29.662Z,22.38
2017-07-26T19:17:01.335Z,22.54
2017-07-26T19:19:33.132Z,22.56
2017-07-26T19:22:04.708Z,22.53
2017-07-26T19:24:36.427Z,22.59
2017-07-26T19:27:08.225Z,22.57
2017-07-26T19:29:39.856Z,22.58
2017-07-26T19:32:12.567Z,22.51
2017-07-26T19:34:44.793Z,22.58
2017-07-26T19:37:16.333Z,22.49
2017-07-26T19:39:47.908Z,22.49
2017-07-26T19:42:22.249Z,22.45
2017-07-26T19:44:53.855Z,22.41
2017-07-26T19:47:27.775Z,22.05
2017-07-26T19:49:59.910Z,22.49
2017-07-26T19:52:31.408Z,22.41
2017-07-26T19:55:03.270Z,22.39
2017-07-26T19:57:41.292Z,22.46
2017-07-26T20:00:15.053Z,22.51
2017-07-26T20:02:47.712Z,22.52
2017-07-26T20:05:22.462Z,22.47
2017-07-26T20:07:54.862Z,22.42
2017-07-26T20:10:27.009Z,22.24
2017-07-26T20:12:58.353Z,22.47
2017-07-26T20:15:29.965Z,22.32
2017-07-26T20:18:01.730Z,22.40
2017-07-26T20:20:33.724Z,22.45
2017-07-26T20:23:06.452Z,22.43
2017-07-26T20:25:38.011Z,22.42
2017-07-26T20:28:10.235Z,22.46
2017-07-26T20:30:42.179Z,22.50
2017-07-26T20:33:13.917Z,22.42
2017-07-26T20:35:45.680Z,22.44
2017-07-26T20:38:17.157Z,22.42
2017-07-26T20:40:48.743Z,22.38
2017-07-26T20:43:23.565Z,22.42
2017-07-26T20:45:55.379Z,22.40
2017-07-26T20:48:26.979Z,22.06
2017-07-26T20:50:59.107Z,22.35
2017-07-26T20:53:30.583Z,22.42
2017-07-26T20:56:02.941Z,22.36
2017-07-26T20:58:38.949Z,21.90
2017-07-26T21:01:10.681Z,22.44
2017-07-26T21:03:42.983Z,22.45
2017-07-26T21:06:14.887Z,22.43
2017-07-26T21:08:46.525Z,22.41
2017-07-26T21:11:20.307Z,22.39
2017-07-26T21:13:52.451Z,22.41
2017-07-26T21:16:27.516Z,22.40
2017-07-26T21:18:59.426Z,22.34
2017-07-26T21:21:31.440Z,22.34
2017-07-26T21:24:03.107Z,22.27
2017-07-26T21:26:34.418Z,22.17
2017-07-26T21:29:06.865Z,22.34
2017-07-26T21:31:38.654Z,22.33
2017-07-26T21:34:10.625Z,22.22
2017-07-26T21:36:42.104Z,22.25
2017-07-26T21:39:13.807Z,22.31
2017-07-26T21:41:45.725Z,22.37
2017-07-26T21:44:20.843Z,22.26
2017-07-26T21:46:53.989Z,22.32
2017-07-26T21:49:28.534Z,22.07
2017-07-26T21:52:01.408Z,22.27
2017-07-26T21:54:34.398Z,22.19
2017-07-26T21:57:07.512Z,22.24
2017-07-26T21:59:39.556Z,22.27
2017-07-26T22:02:16.347Z,22.03
2017-07-26T22:04:50.344Z,22.18
2017-07-26T22:07:25.234Z,22.22
2017-07-26T22:09:58.331Z,22.05
2017-07-26T22:12:31.088Z,22.17
2017-07-26T22:15:03.453Z,22.14
2017-07-26T22:17:36.818Z,22.12
2017-07-26T22:20:09.463Z,22.13
2017-07-26T22:22:41.544Z,22.12
2017-07-26T22:25:14.497Z,22.21
2017-07-26T22:27:47.102Z,22.20
2017-07-26T22:30:22.068Z,22.20
2017-07-26T22:32:56.231Z,22.18
2017-07-26T22:35:29.243Z,22.17
2017-07-26T22:38:01.745Z,22.10
2017-07-26T22:40:34.525Z,22.21
2017-07-26T22:43:06.739Z,22.18
2017-07-26T22:45:39.726Z,22.15
2017-07-26T22:48:12.903Z,22.14
2017-07-26T22:50:45.128Z,22.20
2017-07-26T22:53:17.673Z,22.17
2017-07-26T22:55:52.795Z,22.08
2017-07-26T22:58:27.051Z,22.03
2017-07-26T23:00:59.711Z,22.26
2017-07-26T23:03:32.541Z,22.22
2017-07-26T23:06:05.175Z,22.20
2017-07-26T23:08:42.374Z,21.95
2017-07-26T23:14:00.328Z,22.20
2017-07-26T23:16:33.384Z,22.22
2017-07-26T23:19:05.783Z,22.21
2017-07-26T23:21:38.003Z,22.21
2017-07-26T23:24:10.645Z,22.17
2017-07-26T23:26:44.416Z,22.21
2017-07-26T23:29:16.368Z,22.24
2017-07-26T23:31:49.122Z,22.23
2017-07-26T23:34:23.417Z,22.22
2017-07-26T23:36:55.927Z,22.21
2017-07-26T23:39:27.921Z,22.25
2017-07-26T23:42:00.657Z,22.26
2017-07-26T23:44:33.242Z,22.17
2017-07-26T23:47:05.375Z,22.17
2017-07-26T23:49:37.752Z,22.11
2017-07-26T23:52:10.044Z,22.26
2017-07-26T23:54:42.626Z,22.25
2017-07-26T23:57:15.981Z,22.27
2017-07-26T23:59:48.016Z,22.27
